sensor_id;sensor_type;location;lat;lon;timestamp;P1;durP1;ratioP1;P2;durP2;ratioP2
75171;SDS011;63750;52.418;20.742;2023-03-02T00:00:57;92.90;;;65.50;;
75171;SDS011;63750;52.418;20.742;2023-03-02T00:03:28;86.10;;;59.30;;
75171;SDS011;63750;52.418;20.742;2023-03-02T00:05:56;85.10;;;58.10;;
75171;SDS011;63750;52.418;20.742;2023-03-02T00:08:25;79.30;;;58.70;;
75171;SDS011;63750;52.418;20.742;2023-03-02T00:10:53;81.50;;;57.10;;
75171;SDS011;63750;52.418;20.742;2023-03-02T00:13:21;88.30;;;64.40;;
75171;SDS011;63750;52.418;20.742;2023-03-02T00:15:49;93.50;;;65.20;;
75171;SDS011;63750;52.418;20.742;2023-03-02T00:18:16;91.10;;;63.90;;
75171;SDS011;63750;52.418;20.742;2023-03-02T00:20:44;90.60;;;63.40;;
75171;SDS011;63750;52.418;20.742;2023-03-02T00:23:11;83.20;;;60.20;;
75171;SDS011;63750;52.418;20.742;2023-03-02T00:25:39;88.50;;;61.60;;
75171;SDS011;63750;52.418;20.742;2023-03-02T00:28:07;94.60;;;65.30;;
75171;SDS011;63750;52.418;20.742;2023-03-02T00:30:34;93.10;;;65.60;;
75171;SDS011;63750;52.418;20.742;2023-03-02T00:33:03;89.30;;;64.50;;
75171;SDS011;63750;52.418;20.742;2023-03-02T00:35:35;91.30;;;64.70;;
75171;SDS011;63750;52.418;20.742;2023-03-02T00:38:03;96.50;;;64.70;;
75171;SDS011;63750;52.418;20.742;2023-03-02T00:40:30;89.40;;;64.10;;
75171;SDS011;63750;52.418;20.742;2023-03-02T00:42:58;92.60;;;64.90;;
75171;SDS011;63750;52.418;20.742;2023-03-02T00:45:25;92.20;;;65.80;;
75171;SDS011;63750;52.418;20.742;2023-03-02T00:47:53;95.40;;;66.60;;
75171;SDS011;63750;52.418;20.742;2023-03-02T00:50:21;100.30;;;71.90;;
75171;SDS011;63750;52.418;20.742;2023-03-02T00:52:48;93.80;;;69.20;;
75171;SDS011;63750;52.418;20.742;2023-03-02T00:55:15;102.40;;;70.90;;
75171;SDS011;63750;52.418;20.742;2023-03-02T00:57:43;103.40;;;73.80;;
75171;SDS011;63750;52.418;20.742;2023-03-02T01:00:11;100.90;;;72.60;;
75171;SDS011;63750;52.418;20.742;2023-03-02T01:02:39;102.50;;;75.10;;
75171;SDS011;63750;52.418;20.742;2023-03-02T01:05:07;100.30;;;71.70;;
75171;SDS011;63750;52.418;20.742;2023-03-02T01:07:35;99.00;;;70.90;;
75171;SDS011;63750;52.418;20.742;2023-03-02T01:10:03;99.20;;;69.70;;
75171;SDS011;63750;52.418;20.742;2023-03-02T01:12:32;89.30;;;68.10;;
75171;SDS011;63750;52.418;20.742;2023-03-02T01:15:00;99.70;;;70.50;;
75171;SDS011;63750;52.418;20.742;2023-03-02T01:17:27;98.20;;;68.70;;
75171;SDS011;63750;52.418;20.742;2023-03-02T01:19:55;96.10;;;66.90;;
75171;SDS011;63750;52.418;20.742;2023-03-02T01:22:23;100.50;;;69.70;;
75171;SDS011;63750;52.418;20.742;2023-03-02T01:24:50;90.90;;;66.20;;
75171;SDS011;63750;52.418;20.742;2023-03-02T01:27:18;100.40;;;70.40;;
75171;SDS011;63750;52.418;20.742;2023-03-02T01:29:45;96.00;;;68.50;;
75171;SDS011;63750;52.418;20.742;2023-03-02T01:32:13;101.90;;;69.70;;
75171;SDS011;63750;52.418;20.742;2023-03-02T01:34:40;98.80;;;68.20;;
75171;SDS011;63750;52.418;20.742;2023-03-02T01:37:08;97.60;;;68.40;;
75171;SDS011;63750;52.418;20.742;2023-03-02T01:39:35;101.70;;;69.80;;
75171;SDS011;63750;52.418;20.742;2023-03-02T01:42:03;99.60;;;70.30;;
75171;SDS011;63750;52.418;20.742;2023-03-02T01:44:35;99.00;;;70.60;;
75171;SDS011;63750;52.418;20.742;2023-03-02T01:47:10;97.20;;;68.70;;
75171;SDS011;63750;52.418;20.742;2023-03-02T01:49:42;91.60;;;65.50;;
75171;SDS011;63750;52.418;20.742;2023-03-02T01:52:13;89.30;;;62.40;;
75171;SDS011;63750;52.418;20.742;2023-03-02T01:54:41;88.50;;;63.40;;
75171;SDS011;63750;52.418;20.742;2023-03-02T01:57:11;90.00;;;61.30;;
75171;SDS011;63750;52.418;20.742;2023-03-02T01:59:39;86.10;;;60.80;;
75171;SDS011;63750;52.418;20.742;2023-03-02T02:02:07;86.80;;;60.00;;
75171;SDS011;63750;52.418;20.742;2023-03-02T02:04:39;87.40;;;62.80;;
75171;SDS011;63750;52.418;20.742;2023-03-02T02:07:08;89.00;;;62.40;;
75171;SDS011;63750;52.418;20.742;2023-03-02T02:09:37;89.90;;;63.70;;
75171;SDS011;63750;52.418;20.742;2023-03-02T02:12:11;95.50;;;64.30;;
75171;SDS011;63750;52.418;20.742;2023-03-02T02:14:40;95.60;;;62.60;;
75171;SDS011;63750;52.418;20.742;2023-03-02T02:17:09;88.90;;;62.70;;
75171;SDS011;63750;52.418;20.742;2023-03-02T02:19:41;89.00;;;63.00;;
75171;SDS011;63750;52.418;20.742;2023-03-02T02:22:22;84.80;;;60.80;;
75171;SDS011;63750;52.418;20.742;2023-03-02T02:24:57;91.30;;;62.30;;
75171;SDS011;63750;52.418;20.742;2023-03-02T02:27:29;93.70;;;61.90;;
75171;SDS011;63750;52.418;20.742;2023-03-02T02:29:57;90.10;;;61.60;;
75171;SDS011;63750;52.418;20.742;2023-03-02T02:32:26;87.00;;;58.90;;
75171;SDS011;63750;52.418;20.742;2023-03-02T02:34:57;83.30;;;59.10;;
75171;SDS011;63750;52.418;20.742;2023-03-02T02:37:29;89.80;;;58.50;;
75171;SDS011;63750;52.418;20.742;2023-03-02T02:40:01;85.80;;;60.90;;
75171;SDS011;63750;52.418;20.742;2023-03-02T02:42:31;82.50;;;59.00;;
75171;SDS011;63750;52.418;20.742;2023-03-02T02:45:03;80.70;;;57.30;;
75171;SDS011;63750;52.418;20.742;2023-03-02T02:47:32;93.40;;;62.70;;
75171;SDS011;63750;52.418;20.742;2023-03-02T02:50:00;92.40;;;65.70;;
75171;SDS011;63750;52.418;20.742;2023-03-02T02:52:28;94.10;;;71.30;;
75171;SDS011;63750;52.418;20.742;2023-03-02T02:54:56;95.50;;;64.40;;
75171;SDS011;63750;52.418;20.742;2023-03-02T02:57:25;93.00;;;62.40;;
75171;SDS011;63750;52.418;20.742;2023-03-02T02:59:57;94.20;;;63.60;;
75171;SDS011;63750;52.418;20.742;2023-03-02T03:02:25;93.50;;;62.40;;
75171;SDS011;63750;52.418;20.742;2023-03-02T03:04:54;101.70;;;65.70;;
75171;SDS011;63750;52.418;20.742;2023-03-02T03:07:22;97.50;;;64.10;;
75171;SDS011;63750;52.418;20.742;2023-03-02T03:09:52;97.60;;;63.00;;
75171;SDS011;63750;52.418;20.742;2023-03-02T03:12:26;96.00;;;63.80;;
75171;SDS011;63750;52.418;20.742;2023-03-02T03:14:56;99.60;;;61.90;;
75171;SDS011;63750;52.418;20.742;2023-03-02T03:17:25;90.30;;;60.50;;
75171;SDS011;63750;52.418;20.742;2023-03-02T03:19:52;94.40;;;59.30;;
75171;SDS011;63750;52.418;20.742;2023-03-02T03:22:20;90.60;;;59.50;;
75171;SDS011;63750;52.418;20.742;2023-03-02T03:24:47;90.70;;;57.50;;
75171;SDS011;63750;52.418;20.742;2023-03-02T03:27:15;90.40;;;58.70;;
75171;SDS011;63750;52.418;20.742;2023-03-02T03:29:42;90.00;;;59.00;;
75171;SDS011;63750;52.418;20.742;2023-03-02T03:32:11;90.80;;;59.40;;
75171;SDS011;63750;52.418;20.742;2023-03-02T03:34:38;88.80;;;58.80;;
75171;SDS011;63750;52.418;20.742;2023-03-02T03:37:06;94.10;;;60.40;;
75171;SDS011;63750;52.418;20.742;2023-03-02T03:39:35;93.90;;;59.80;;
75171;SDS011;63750;52.418;20.742;2023-03-02T03:42:03;92.70;;;61.10;;
75171;SDS011;63750;52.418;20.742;2023-03-02T03:44:31;91.10;;;58.00;;
75171;SDS011;63750;52.418;20.742;2023-03-02T03:46:58;91.60;;;60.10;;
75171;SDS011;63750;52.418;20.742;2023-03-02T03:49:26;92.00;;;56.30;;
75171;SDS011;63750;52.418;20.742;2023-03-02T03:51:54;79.60;;;56.50;;
75171;SDS011;63750;52.418;20.742;2023-03-02T03:54:21;88.00;;;57.90;;
75171;SDS011;63750;52.418;20.742;2023-03-02T03:56:49;74.90;;;50.80;;
75171;SDS011;63750;52.418;20.742;2023-03-02T03:59:17;79.60;;;52.10;;
75171;SDS011;63750;52.418;20.742;2023-03-02T04:01:47;70.40;;;50.30;;
75171;SDS011;63750;52.418;20.742;2023-03-02T04:04:16;74.60;;;51.50;;
75171;SDS011;63750;52.418;20.742;2023-03-02T04:06:45;75.80;;;51.60;;
75171;SDS011;63750;52.418;20.742;2023-03-02T04:09:13;83.20;;;54.10;;
75171;SDS011;63750;52.418;20.742;2023-03-02T04:11:41;75.50;;;53.10;;
75171;SDS011;63750;52.418;20.742;2023-03-02T04:14:10;85.30;;;57.60;;
75171;SDS011;63750;52.418;20.742;2023-03-02T04:16:38;82.30;;;56.30;;
75171;SDS011;63750;52.418;20.742;2023-03-02T04:19:06;79.10;;;53.50;;
75171;SDS011;63750;52.418;20.742;2023-03-02T04:21:35;73.40;;;53.40;;
75171;SDS011;63750;52.418;20.742;2023-03-02T04:24:03;73.20;;;50.90;;
75171;SDS011;63750;52.418;20.742;2023-03-02T04:26:32;70.80;;;50.60;;
75171;SDS011;63750;52.418;20.742;2023-03-02T04:29:01;67.20;;;49.70;;
75171;SDS011;63750;52.418;20.742;2023-03-02T04:31:29;73.20;;;50.30;;
75171;SDS011;63750;52.418;20.742;2023-03-02T04:33:56;66.70;;;46.80;;
75171;SDS011;63750;52.418;20.742;2023-03-02T04:36:25;64.20;;;47.30;;
75171;SDS011;63750;52.418;20.742;2023-03-02T04:38:53;65.00;;;46.80;;
75171;SDS011;63750;52.418;20.742;2023-03-02T04:41:20;63.30;;;48.00;;
75171;SDS011;63750;52.418;20.742;2023-03-02T04:43:48;67.60;;;49.10;;
75171;SDS011;63750;52.418;20.742;2023-03-02T04:46:17;64.40;;;48.20;;
75171;SDS011;63750;52.418;20.742;2023-03-02T04:48:46;65.60;;;47.30;;
75171;SDS011;63750;52.418;20.742;2023-03-02T04:51:16;68.10;;;47.20;;
75171;SDS011;63750;52.418;20.742;2023-03-02T04:53:46;66.40;;;49.50;;
75171;SDS011;63750;52.418;20.742;2023-03-02T04:56:13;67.80;;;50.70;;
75171;SDS011;63750;52.418;20.742;2023-03-02T04:58:40;65.40;;;48.60;;
75171;SDS011;63750;52.418;20.742;2023-03-02T05:01:08;67.10;;;48.30;;
75171;SDS011;63750;52.418;20.742;2023-03-02T05:03:36;68.80;;;49.30;;
75171;SDS011;63750;52.418;20.742;2023-03-02T05:06:04;65.30;;;48.40;;
75171;SDS011;63750;52.418;20.742;2023-03-02T05:08:32;59.60;;;45.90;;
75171;SDS011;63750;52.418;20.742;2023-03-02T05:10:59;68.10;;;47.30;;
75171;SDS011;63750;52.418;20.742;2023-03-02T05:13:27;63.10;;;46.50;;
75171;SDS011;63750;52.418;20.742;2023-03-02T05:15:54;62.90;;;45.70;;
75171;SDS011;63750;52.418;20.742;2023-03-02T05:18:22;66.40;;;46.90;;
75171;SDS011;63750;52.418;20.742;2023-03-02T05:20:50;68.00;;;47.80;;
75171;SDS011;63750;52.418;20.742;2023-03-02T05:23:18;62.10;;;46.70;;
75171;SDS011;63750;52.418;20.742;2023-03-02T05:25:56;64.00;;;48.70;;
75171;SDS011;63750;52.418;20.742;2023-03-02T05:28:23;68.20;;;48.10;;
75171;SDS011;63750;52.418;20.742;2023-03-02T05:30:52;66.70;;;47.70;;
75171;SDS011;63750;52.418;20.742;2023-03-02T05:33:19;65.20;;;47.00;;
75171;SDS011;63750;52.418;20.742;2023-03-02T05:35:47;61.20;;;47.00;;
75171;SDS011;63750;52.418;20.742;2023-03-02T05:38:14;65.30;;;46.30;;
75171;SDS011;63750;52.418;20.742;2023-03-02T05:40:42;62.70;;;46.50;;
75171;SDS011;63750;52.418;20.742;2023-03-02T05:43:10;69.00;;;47.70;;
75171;SDS011;63750;52.418;20.742;2023-03-02T05:45:41;68.60;;;49.60;;
75171;SDS011;63750;52.418;20.742;2023-03-02T05:48:09;65.80;;;48.50;;
75171;SDS011;63750;52.418;20.742;2023-03-02T05:50:38;70.00;;;47.80;;
75171;SDS011;63750;52.418;20.742;2023-03-02T05:53:06;64.80;;;48.90;;
75171;SDS011;63750;52.418;20.742;2023-03-02T05:55:33;63.20;;;47.00;;
75171;SDS011;63750;52.418;20.742;2023-03-02T05:58:01;67.60;;;49.50;;
75171;SDS011;63750;52.418;20.742;2023-03-02T06:00:28;65.60;;;49.70;;
75171;SDS011;63750;52.418;20.742;2023-03-02T06:02:56;71.00;;;51.40;;
75171;SDS011;63750;52.418;20.742;2023-03-02T06:05:23;69.10;;;50.50;;
75171;SDS011;63750;52.418;20.742;2023-03-02T06:07:50;71.40;;;48.80;;
75171;SDS011;63750;52.418;20.742;2023-03-02T06:10:18;69.10;;;48.50;;
75171;SDS011;63750;52.418;20.742;2023-03-02T06:12:45;71.90;;;50.70;;
75171;SDS011;63750;52.418;20.742;2023-03-02T06:15:12;72.00;;;51.70;;
75171;SDS011;63750;52.418;20.742;2023-03-02T06:17:40;64.80;;;49.80;;
75171;SDS011;63750;52.418;20.742;2023-03-02T06:20:08;67.00;;;49.40;;
75171;SDS011;63750;52.418;20.742;2023-03-02T06:22:37;66.40;;;48.80;;
75171;SDS011;63750;52.418;20.742;2023-03-02T06:25:06;66.50;;;48.70;;
75171;SDS011;63750;52.418;20.742;2023-03-02T06:27:34;71.00;;;49.30;;
75171;SDS011;63750;52.418;20.742;2023-03-02T06:30:03;67.00;;;49.80;;
75171;SDS011;63750;52.418;20.742;2023-03-02T06:32:32;66.00;;;47.60;;
75171;SDS011;63750;52.418;20.742;2023-03-02T06:34:59;62.20;;;46.40;;
75171;SDS011;63750;52.418;20.742;2023-03-02T06:37:27;63.00;;;46.40;;
75171;SDS011;63750;52.418;20.742;2023-03-02T06:39:55;66.40;;;48.10;;
75171;SDS011;63750;52.418;20.742;2023-03-02T06:42:23;59.20;;;45.70;;
75171;SDS011;63750;52.418;20.742;2023-03-02T06:44:52;68.20;;;48.30;;
75171;SDS011;63750;52.418;20.742;2023-03-02T06:47:20;64.60;;;47.50;;
75171;SDS011;63750;52.418;20.742;2023-03-02T06:49:48;60.60;;;44.70;;
75171;SDS011;63750;52.418;20.742;2023-03-02T06:52:15;61.40;;;43.30;;
75171;SDS011;63750;52.418;20.742;2023-03-02T06:54:43;55.90;;;42.20;;
75171;SDS011;63750;52.418;20.742;2023-03-02T06:57:10;53.50;;;37.40;;
75171;SDS011;63750;52.418;20.742;2023-03-02T06:59:37;50.70;;;39.40;;
75171;SDS011;63750;52.418;20.742;2023-03-02T07:02:05;50.50;;;38.10;;
75171;SDS011;63750;52.418;20.742;2023-03-02T07:04:32;56.20;;;39.10;;
75171;SDS011;63750;52.418;20.742;2023-03-02T07:06:59;53.60;;;39.30;;
75171;SDS011;63750;52.418;20.742;2023-03-02T07:09:27;54.30;;;39.40;;
75171;SDS011;63750;52.418;20.742;2023-03-02T07:11:54;49.80;;;36.80;;
75171;SDS011;63750;52.418;20.742;2023-03-02T07:14:21;48.90;;;36.40;;
75171;SDS011;63750;52.418;20.742;2023-03-02T07:16:49;55.30;;;38.80;;
75171;SDS011;63750;52.418;20.742;2023-03-02T07:19:16;54.10;;;38.90;;
75171;SDS011;63750;52.418;20.742;2023-03-02T07:21:43;48.80;;;36.60;;
75171;SDS011;63750;52.418;20.742;2023-03-02T07:24:11;50.50;;;36.30;;
75171;SDS011;63750;52.418;20.742;2023-03-02T07:26:38;55.70;;;40.90;;
75171;SDS011;63750;52.418;20.742;2023-03-02T07:29:06;59.00;;;42.40;;
75171;SDS011;63750;52.418;20.742;2023-03-02T07:31:33;54.10;;;40.20;;
75171;SDS011;63750;52.418;20.742;2023-03-02T07:34:00;59.10;;;43.60;;
75171;SDS011;63750;52.418;20.742;2023-03-02T07:36:28;60.20;;;44.30;;
75171;SDS011;63750;52.418;20.742;2023-03-02T07:38:55;49.90;;;37.60;;
75171;SDS011;63750;52.418;20.742;2023-03-02T07:41:22;43.40;;;32.90;;
75171;SDS011;63750;52.418;20.742;2023-03-02T07:43:50;41.70;;;32.30;;
75171;SDS011;63750;52.418;20.742;2023-03-02T07:46:17;40.50;;;30.80;;
75171;SDS011;63750;52.418;20.742;2023-03-02T07:48:44;38.40;;;28.50;;
75171;SDS011;63750;52.418;20.742;2023-03-02T07:51:12;35.20;;;27.90;;
75171;SDS011;63750;52.418;20.742;2023-03-02T07:53:39;34.80;;;26.00;;
75171;SDS011;63750;52.418;20.742;2023-03-02T07:56:07;31.80;;;23.70;;
75171;SDS011;63750;52.418;20.742;2023-03-02T07:58:36;30.60;;;23.40;;
75171;SDS011;63750;52.418;20.742;2023-03-02T08:01:04;28.50;;;22.00;;
75171;SDS011;63750;52.418;20.742;2023-03-02T08:03:31;27.40;;;21.20;;
75171;SDS011;63750;52.418;20.742;2023-03-02T08:05:58;28.40;;;21.70;;
75171;SDS011;63750;52.418;20.742;2023-03-02T08:08:30;28.80;;;21.60;;
75171;SDS011;63750;52.418;20.742;2023-03-02T08:11:03;28.70;;;20.30;;
75171;SDS011;63750;52.418;20.742;2023-03-02T08:13:31;28.60;;;22.30;;
75171;SDS011;63750;52.418;20.742;2023-03-02T08:15:59;30.50;;;22.10;;
75171;SDS011;63750;52.418;20.742;2023-03-02T08:18:27;28.20;;;21.10;;
75171;SDS011;63750;52.418;20.742;2023-03-02T08:20:55;26.50;;;19.60;;
75171;SDS011;63750;52.418;20.742;2023-03-02T08:23:22;24.20;;;17.80;;
75171;SDS011;63750;52.418;20.742;2023-03-02T08:25:51;18.40;;;14.30;;
75171;SDS011;63750;52.418;20.742;2023-03-02T08:28:19;17.80;;;14.40;;
75171;SDS011;63750;52.418;20.742;2023-03-02T08:30:54;19.20;;;15.60;;
75171;SDS011;63750;52.418;20.742;2023-03-02T08:33:22;18.70;;;14.40;;
75171;SDS011;63750;52.418;20.742;2023-03-02T08:35:56;18.10;;;13.80;;
75171;SDS011;63750;52.418;20.742;2023-03-02T08:38:25;17.10;;;13.80;;
75171;SDS011;63750;52.418;20.742;2023-03-02T08:40:52;17.60;;;13.80;;
75171;SDS011;63750;52.418;20.742;2023-03-02T08:43:21;16.70;;;13.00;;
75171;SDS011;63750;52.418;20.742;2023-03-02T08:45:50;21.50;;;15.50;;
75171;SDS011;63750;52.418;20.742;2023-03-02T08:48:18;21.90;;;15.80;;
75171;SDS011;63750;52.418;20.742;2023-03-02T08:50:53;23.70;;;16.50;;
75171;SDS011;63750;52.418;20.742;2023-03-02T08:53:21;23.80;;;18.40;;
75171;SDS011;63750;52.418;20.742;2023-03-02T08:55:49;30.10;;;22.80;;
75171;SDS011;63750;52.418;20.742;2023-03-02T08:58:17;33.20;;;25.60;;
75171;SDS011;63750;52.418;20.742;2023-03-02T09:00:44;36.90;;;25.90;;
75171;SDS011;63750;52.418;20.742;2023-03-02T09:03:12;34.90;;;26.50;;
75171;SDS011;63750;52.418;20.742;2023-03-02T09:05:39;33.80;;;24.40;;
75171;SDS011;63750;52.418;20.742;2023-03-02T09:08:07;36.70;;;24.30;;
75171;SDS011;63750;52.418;20.742;2023-03-02T09:10:36;35.30;;;25.30;;
75171;SDS011;63750;52.418;20.742;2023-03-02T09:13:03;34.90;;;23.90;;
75171;SDS011;63750;52.418;20.742;2023-03-02T09:15:31;30.80;;;22.00;;
75171;SDS011;63750;52.418;20.742;2023-03-02T09:17:58;29.50;;;19.90;;
75171;SDS011;63750;52.418;20.742;2023-03-02T09:20:25;24.50;;;17.50;;
75171;SDS011;63750;52.418;20.742;2023-03-02T09:22:53;24.20;;;18.20;;
75171;SDS011;63750;52.418;20.742;2023-03-02T09:25:20;26.90;;;18.90;;
75171;SDS011;63750;52.418;20.742;2023-03-02T09:27:47;23.20;;;17.00;;
75171;SDS011;63750;52.418;20.742;2023-03-02T09:30:15;21.00;;;16.70;;
75171;SDS011;63750;52.418;20.742;2023-03-02T09:32:43;20.40;;;15.90;;
75171;SDS011;63750;52.418;20.742;2023-03-02T09:35:10;19.20;;;15.90;;
75171;SDS011;63750;52.418;20.742;2023-03-02T09:37:37;17.90;;;15.20;;
75171;SDS011;63750;52.418;20.742;2023-03-02T09:40:09;17.70;;;14.40;;
75171;SDS011;63750;52.418;20.742;2023-03-02T09:45:47;21.10;;;15.20;;
75171;SDS011;63750;52.418;20.742;2023-03-02T09:48:24;24.20;;;15.70;;
75171;SDS011;63750;52.418;20.742;2023-03-02T09:51:03;33.20;;;19.20;;
75171;SDS011;63750;52.418;20.742;2023-03-02T09:53:42;33.50;;;19.80;;
75171;SDS011;63750;52.418;20.742;2023-03-02T09:56:13;29.40;;;19.00;;
75171;SDS011;63750;52.418;20.742;2023-03-02T09:58:44;23.50;;;17.50;;
75171;SDS011;63750;52.418;20.742;2023-03-02T10:01:20;21.60;;;16.70;;
75171;SDS011;63750;52.418;20.742;2023-03-02T10:03:56;14.80;;;13.00;;
75171;SDS011;63750;52.418;20.742;2023-03-02T10:06:30;18.00;;;14.00;;
75171;SDS011;63750;52.418;20.742;2023-03-02T10:08:57;20.60;;;14.50;;
75171;SDS011;63750;52.418;20.742;2023-03-02T10:11:27;18.00;;;13.90;;
75171;SDS011;63750;52.418;20.742;2023-03-02T10:14:05;16.80;;;14.00;;
75171;SDS011;63750;52.418;20.742;2023-03-02T10:16:41;20.10;;;15.70;;
75171;SDS011;63750;52.418;20.742;2023-03-02T10:19:14;17.30;;;14.00;;
75171;SDS011;63750;52.418;20.742;2023-03-02T10:21:48;19.80;;;15.50;;
75171;SDS011;63750;52.418;20.742;2023-03-02T10:24:22;21.70;;;16.30;;
75171;SDS011;63750;52.418;20.742;2023-03-02T10:26:58;22.50;;;18.00;;
75171;SDS011;63750;52.418;20.742;2023-03-02T10:29:38;23.00;;;16.70;;
75171;SDS011;63750;52.418;20.742;2023-03-02T10:32:13;22.80;;;18.50;;
75171;SDS011;63750;52.418;20.742;2023-03-02T10:34:45;21.30;;;16.90;;
75171;SDS011;63750;52.418;20.742;2023-03-02T10:37:13;21.60;;;15.80;;
75171;SDS011;63750;52.418;20.742;2023-03-02T10:39:43;21.60;;;15.50;;
75171;SDS011;63750;52.418;20.742;2023-03-02T10:42:12;22.00;;;17.50;;
75171;SDS011;63750;52.418;20.742;2023-03-02T10:44:45;24.20;;;19.70;;
75171;SDS011;63750;52.418;20.742;2023-03-02T10:47:21;24.50;;;18.30;;
75171;SDS011;63750;52.418;20.742;2023-03-02T10:49:50;21.40;;;16.90;;
75171;SDS011;63750;52.418;20.742;2023-03-02T10:52:20;20.60;;;16.50;;
75171;SDS011;63750;52.418;20.742;2023-03-02T10:54:48;24.20;;;18.50;;
75171;SDS011;63750;52.418;20.742;2023-03-02T10:57:32;25.30;;;19.10;;
75171;SDS011;63750;52.418;20.742;2023-03-02T11:00:04;19.60;;;15.90;;
75171;SDS011;63750;52.418;20.742;2023-03-02T11:02:47;19.00;;;14.20;;
75171;SDS011;63750;52.418;20.742;2023-03-02T11:05:20;19.20;;;16.00;;
75171;SDS011;63750;52.418;20.742;2023-03-02T11:07:51;20.00;;;15.70;;
75171;SDS011;63750;52.418;20.742;2023-03-02T11:10:20;18.70;;;13.80;;
75171;SDS011;63750;52.418;20.742;2023-03-02T11:12:49;18.50;;;14.80;;
75171;SDS011;63750;52.418;20.742;2023-03-02T11:15:20;20.50;;;15.20;;
75171;SDS011;63750;52.418;20.742;2023-03-02T11:17:51;20.40;;;15.10;;
75171;SDS011;63750;52.418;20.742;2023-03-02T11:20:24;19.30;;;14.80;;
75171;SDS011;63750;52.418;20.742;2023-03-02T11:22:58;20.10;;;16.10;;
75171;SDS011;63750;52.418;20.742;2023-03-02T11:25:31;19.60;;;14.40;;
75171;SDS011;63750;52.418;20.742;2023-03-02T11:28:04;17.00;;;13.70;;
75171;SDS011;63750;52.418;20.742;2023-03-02T11:30:39;17.50;;;13.10;;
75171;SDS011;63750;52.418;20.742;2023-03-02T11:33:13;22.10;;;15.40;;
75171;SDS011;63750;52.418;20.742;2023-03-02T11:35:46;19.90;;;14.70;;
75171;SDS011;63750;52.418;20.742;2023-03-02T11:38:20;19.30;;;15.30;;
75171;SDS011;63750;52.418;20.742;2023-03-02T11:40:52;20.10;;;15.00;;
75171;SDS011;63750;52.418;20.742;2023-03-02T11:43:23;20.80;;;14.80;;
75171;SDS011;63750;52.418;20.742;2023-03-02T11:45:53;21.20;;;16.30;;
75171;SDS011;63750;52.418;20.742;2023-03-02T11:48:25;19.80;;;16.20;;
75171;SDS011;63750;52.418;20.742;2023-03-02T11:50:56;19.50;;;15.00;;
75171;SDS011;63750;52.418;20.742;2023-03-02T11:53:26;20.10;;;16.30;;
75171;SDS011;63750;52.418;20.742;2023-03-02T11:55:58;17.10;;;14.50;;
75171;SDS011;63750;52.418;20.742;2023-03-02T11:58:25;21.50;;;17.10;;
75171;SDS011;63750;52.418;20.742;2023-03-02T12:00:55;21.70;;;19.10;;
75171;SDS011;63750;52.418;20.742;2023-03-02T12:03:34;24.70;;;18.90;;
75171;SDS011;63750;52.418;20.742;2023-03-02T12:06:04;24.00;;;18.00;;
75171;SDS011;63750;52.418;20.742;2023-03-02T12:08:50;21.80;;;16.00;;
75171;SDS011;63750;52.418;20.742;2023-03-02T12:11:28;20.70;;;15.30;;
75171;SDS011;63750;52.418;20.742;2023-03-02T12:14:00;18.50;;;15.90;;
75171;SDS011;63750;52.418;20.742;2023-03-02T12:16:39;23.00;;;17.10;;
75171;SDS011;63750;52.418;20.742;2023-03-02T12:19:11;19.50;;;16.70;;
75171;SDS011;63750;52.418;20.742;2023-03-02T12:21:56;20.30;;;16.90;;
75171;SDS011;63750;52.418;20.742;2023-03-02T12:24:25;21.90;;;17.40;;
75171;SDS011;63750;52.418;20.742;2023-03-02T12:27:00;21.60;;;17.20;;
75171;SDS011;63750;52.418;20.742;2023-03-02T12:29:37;20.90;;;16.50;;
75171;SDS011;63750;52.418;20.742;2023-03-02T12:32:11;21.90;;;18.00;;
75171;SDS011;63750;52.418;20.742;2023-03-02T12:34:51;23.70;;;18.10;;
75171;SDS011;63750;52.418;20.742;2023-03-02T12:37:22;19.30;;;16.80;;
75171;SDS011;63750;52.418;20.742;2023-03-02T12:40:01;21.20;;;17.30;;
75171;SDS011;63750;52.418;20.742;2023-03-02T12:42:53;22.80;;;17.90;;
75171;SDS011;63750;52.418;20.742;2023-03-02T12:46:08;21.20;;;17.90;;
75171;SDS011;63750;52.418;20.742;2023-03-02T12:48:55;25.40;;;18.60;;
75171;SDS011;63750;52.418;20.742;2023-03-02T12:51:48;20.80;;;16.40;;
75171;SDS011;63750;52.418;20.742;2023-03-02T12:54:18;19.90;;;16.20;;
75171;SDS011;63750;52.418;20.742;2023-03-02T12:56:49;21.90;;;17.50;;
75171;SDS011;63750;52.418;20.742;2023-03-02T12:59:27;20.80;;;16.90;;
75171;SDS011;63750;52.418;20.742;2023-03-02T13:02:03;23.90;;;18.00;;
75171;SDS011;63750;52.418;20.742;2023-03-02T13:04:37;23.40;;;18.50;;
75171;SDS011;63750;52.418;20.742;2023-03-02T13:07:05;26.80;;;19.70;;
75171;SDS011;63750;52.418;20.742;2023-03-02T13:09:40;25.70;;;19.10;;
75171;SDS011;63750;52.418;20.742;2023-03-02T13:12:11;27.80;;;19.20;;
75171;SDS011;63750;52.418;20.742;2023-03-02T13:14:39;26.40;;;19.00;;
75171;SDS011;63750;52.418;20.742;2023-03-02T13:17:17;21.80;;;17.90;;
75171;SDS011;63750;52.418;20.742;2023-03-02T13:19:48;26.40;;;19.00;;
75171;SDS011;63750;52.418;20.742;2023-03-02T13:22:16;24.20;;;18.50;;
75171;SDS011;63750;52.418;20.742;2023-03-02T13:24:54;25.60;;;19.20;;
75171;SDS011;63750;52.418;20.742;2023-03-02T13:27:26;28.10;;;20.50;;
75171;SDS011;63750;52.418;20.742;2023-03-02T13:29:54;25.20;;;18.80;;
75171;SDS011;63750;52.418;20.742;2023-03-02T13:32:34;26.10;;;20.20;;
75171;SDS011;63750;52.418;20.742;2023-03-02T13:35:14;25.30;;;18.70;;
75171;SDS011;63750;52.418;20.742;2023-03-02T13:37:44;25.60;;;21.30;;
75171;SDS011;63750;52.418;20.742;2023-03-02T13:40:31;27.60;;;20.10;;
75171;SDS011;63750;52.418;20.742;2023-03-02T13:43:20;28.70;;;20.40;;
75171;SDS011;63750;52.418;20.742;2023-03-02T13:46:00;32.00;;;21.50;;
75171;SDS011;63750;52.418;20.742;2023-03-02T13:48:30;28.00;;;20.70;;
75171;SDS011;63750;52.418;20.742;2023-03-02T13:50:58;27.00;;;20.20;;
75171;SDS011;63750;52.418;20.742;2023-03-02T13:53:39;27.30;;;19.80;;
75171;SDS011;63750;52.418;20.742;2023-03-02T13:56:10;45.00;;;20.30;;
75171;SDS011;63750;52.418;20.742;2023-03-02T13:58:42;27.70;;;20.50;;
75171;SDS011;63750;52.418;20.742;2023-03-02T14:01:10;29.50;;;18.90;;
75171;SDS011;63750;52.418;20.742;2023-03-02T14:03:38;28.80;;;19.50;;
75171;SDS011;63750;52.418;20.742;2023-03-02T14:06:07;29.10;;;19.90;;
75171;SDS011;63750;52.418;20.742;2023-03-02T14:08:34;28.00;;;20.40;;
75171;SDS011;63750;52.418;20.742;2023-03-02T14:11:02;27.60;;;20.00;;
75171;SDS011;63750;52.418;20.742;2023-03-02T14:13:33;27.10;;;19.10;;
75171;SDS011;63750;52.418;20.742;2023-03-02T14:16:02;25.10;;;19.90;;
75171;SDS011;63750;52.418;20.742;2023-03-02T14:18:35;23.10;;;19.10;;
75171;SDS011;63750;52.418;20.742;2023-03-02T14:21:05;23.20;;;18.20;;
75171;SDS011;63750;52.418;20.742;2023-03-02T14:23:35;24.80;;;18.20;;
75171;SDS011;63750;52.418;20.742;2023-03-02T14:26:03;21.70;;;16.70;;
75171;SDS011;63750;52.418;20.742;2023-03-02T14:28:55;22.10;;;18.40;;